Armstrong, Pennsylvania
Current Conditions -  °F | °C
As of 4:54 AM on Saturday 01 Nov 2014 (Local Time) from KIPT Reporting Station
Overcast Overcast  
Wind Chill: 43°   Ceiling: 3200
Heat Index: 45°   Visibility: 10mi
Dew Point: 37°   Wind: 5mph
Humidity: 74%   Direction: 250°WSW
Pressure: 29.86"   Gusts: NA
Location:  41.2285°N, 77.014°W
Report Text: KIPT 010854Z AUTO 25004KT 10SM OVC032 07/03 A2986 RMK AO2 SLP112 T00720028 58005
Loading
Personal Weather Stations






























Interactive Weather Map
Tropical Storm Tracking
New forecast layout! Learn more

10-Day Weather Forecast

Advertisements
Track Severe Weather on mobile